sensor_id;sensor_type;location;lat;lon;timestamp;P1;durP1;ratioP1;P2;durP2;ratioP2
52866;SDS011;38739;53.324;6.862;2022-09-03T00:01:02;4.32;;;1.30;;
52866;SDS011;38739;53.324;6.862;2022-09-03T00:03:48;5.50;;;1.10;;
52866;SDS011;38739;53.324;6.862;2022-09-03T00:06:22;4.85;;;1.00;;
52866;SDS011;38739;53.324;6.862;2022-09-03T00:11:49;3.45;;;1.10;;
52866;SDS011;38739;53.324;6.862;2022-09-03T00:14:24;3.33;;;1.10;;
52866;SDS011;38739;53.324;6.862;2022-09-03T00:16:59;2.65;;;1.30;;
52866;SDS011;38739;53.324;6.862;2022-09-03T00:19:30;3.92;;;1.15;;
52866;SDS011;38739;53.324;6.862;2022-09-03T00:22:03;2.15;;;1.15;;
52866;SDS011;38739;53.324;6.862;2022-09-03T00:24:35;5.28;;;1.00;;
52866;SDS011;38739;53.324;6.862;2022-09-03T00:27:06;4.18;;;1.10;;
52866;SDS011;38739;53.324;6.862;2022-09-03T00:29:48;5.18;;;1.20;;
52866;SDS011;38739;53.324;6.862;2022-09-03T00:32:38;1.92;;;0.82;;
52866;SDS011;38739;53.324;6.862;2022-09-03T00:35:10;1.27;;;1.10;;
52866;SDS011;38739;53.324;6.862;2022-09-03T00:37:44;2.78;;;1.20;;
52866;SDS011;38739;53.324;6.862;2022-09-03T00:40:15;2.55;;;0.98;;
52866;SDS011;38739;53.324;6.862;2022-09-03T00:43:17;3.25;;;1.20;;
52866;SDS011;38739;53.324;6.862;2022-09-03T00:46:00;5.35;;;1.17;;
52866;SDS011;38739;53.324;6.862;2022-09-03T00:48:51;1.98;;;1.00;;
52866;SDS011;38739;53.324;6.862;2022-09-03T00:55:06;1.95;;;1.15;;
52866;SDS011;38739;53.324;6.862;2022-09-03T00:57:52;1.42;;;0.90;;
52866;SDS011;38739;53.324;6.862;2022-09-03T01:00:34;3.58;;;1.23;;
52866;SDS011;38739;53.324;6.862;2022-09-03T01:03:11;4.07;;;1.10;;
52866;SDS011;38739;53.324;6.862;2022-09-03T01:14:33;1.88;;;1.23;;
52866;SDS011;38739;53.324;6.862;2022-09-03T01:37:50;1.90;;;1.10;;
52866;SDS011;38739;53.324;6.862;2022-09-03T01:45:53;5.43;;;1.20;;
52866;SDS011;38739;53.324;6.862;2022-09-03T01:57:06;3.42;;;1.35;;
52866;SDS011;38739;53.324;6.862;2022-09-03T01:59:44;3.50;;;1.20;;
52866;SDS011;38739;53.324;6.862;2022-09-03T02:02:28;2.85;;;1.40;;
52866;SDS011;38739;53.324;6.862;2022-09-03T02:07:20;1.80;;;1.20;;
52866;SDS011;38739;53.324;6.862;2022-09-03T02:09:48;2.13;;;1.30;;
52866;SDS011;38739;53.324;6.862;2022-09-03T02:12:15;3.67;;;1.15;;
52866;SDS011;38739;53.324;6.862;2022-09-03T02:14:42;2.95;;;1.20;;
52866;SDS011;38739;53.324;6.862;2022-09-03T02:17:08;3.28;;;1.10;;
52866;SDS011;38739;53.324;6.862;2022-09-03T02:19:35;4.82;;;1.40;;
52866;SDS011;38739;53.324;6.862;2022-09-03T02:22:03;1.92;;;1.30;;
52866;SDS011;38739;53.324;6.862;2022-09-03T02:24:30;3.38;;;1.40;;
52866;SDS011;38739;53.324;6.862;2022-09-03T02:26:58;2.25;;;1.40;;
52866;SDS011;38739;53.324;6.862;2022-09-03T02:29:24;5.82;;;1.42;;
52866;SDS011;38739;53.324;6.862;2022-09-03T02:31:50;1.83;;;1.20;;
52866;SDS011;38739;53.324;6.862;2022-09-03T02:34:16;3.00;;;1.40;;
52866;SDS011;38739;53.324;6.862;2022-09-03T02:36:43;3.40;;;1.48;;
52866;SDS011;38739;53.324;6.862;2022-09-03T02:39:11;3.00;;;1.27;;
52866;SDS011;38739;53.324;6.862;2022-09-03T02:41:37;2.58;;;1.50;;
52866;SDS011;38739;53.324;6.862;2022-09-03T02:46:37;5.68;;;1.42;;
52866;SDS011;38739;53.324;6.862;2022-09-03T02:49:12;2.08;;;1.30;;
52866;SDS011;38739;53.324;6.862;2022-09-03T02:51:39;2.35;;;1.45;;
52866;SDS011;38739;53.324;6.862;2022-09-03T02:54:06;2.83;;;1.42;;
52866;SDS011;38739;53.324;6.862;2022-09-03T02:56:33;3.83;;;1.35;;
52866;SDS011;38739;53.324;6.862;2022-09-03T02:58:59;3.85;;;1.50;;
52866;SDS011;38739;53.324;6.862;2022-09-03T03:01:25;3.65;;;1.30;;
52866;SDS011;38739;53.324;6.862;2022-09-03T03:03:51;7.88;;;1.92;;
52866;SDS011;38739;53.324;6.862;2022-09-03T03:06:17;1.70;;;1.40;;
52866;SDS011;38739;53.324;6.862;2022-09-03T03:08:45;2.17;;;1.60;;
52866;SDS011;38739;53.324;6.862;2022-09-03T03:11:11;3.17;;;1.58;;
52866;SDS011;38739;53.324;6.862;2022-09-03T03:13:43;2.97;;;1.30;;
52866;SDS011;38739;53.324;6.862;2022-09-03T03:16:10;1.90;;;1.33;;
52866;SDS011;38739;53.324;6.862;2022-09-03T03:18:36;3.63;;;1.42;;
52866;SDS011;38739;53.324;6.862;2022-09-03T03:21:06;5.55;;;1.42;;
52866;SDS011;38739;53.324;6.862;2022-09-03T03:23:34;4.28;;;1.40;;
52866;SDS011;38739;53.324;6.862;2022-09-03T03:26:01;2.63;;;1.45;;
52866;SDS011;38739;53.324;6.862;2022-09-03T03:28:28;3.15;;;1.50;;
52866;SDS011;38739;53.324;6.862;2022-09-03T03:31:04;4.70;;;1.70;;
52866;SDS011;38739;53.324;6.862;2022-09-03T03:33:31;2.47;;;1.52;;
52866;SDS011;38739;53.324;6.862;2022-09-03T03:35:57;4.80;;;1.50;;
52866;SDS011;38739;53.324;6.862;2022-09-03T03:38:27;4.07;;;1.60;;
52866;SDS011;38739;53.324;6.862;2022-09-03T03:40:53;3.55;;;1.70;;
52866;SDS011;38739;53.324;6.862;2022-09-03T03:43:19;1.88;;;1.48;;
52866;SDS011;38739;53.324;6.862;2022-09-03T03:45:54;2.60;;;1.60;;
52866;SDS011;38739;53.324;6.862;2022-09-03T03:48:21;2.63;;;1.63;;
52866;SDS011;38739;53.324;6.862;2022-09-03T03:50:47;1.60;;;1.50;;
52866;SDS011;38739;53.324;6.862;2022-09-03T03:53:13;3.13;;;1.65;;
52866;SDS011;38739;53.324;6.862;2022-09-03T03:55:38;3.67;;;1.70;;
52866;SDS011;38739;53.324;6.862;2022-09-03T03:58:04;2.28;;;1.75;;
52866;SDS011;38739;53.324;6.862;2022-09-03T04:00:30;5.32;;;1.90;;
52866;SDS011;38739;53.324;6.862;2022-09-03T04:02:58;2.95;;;1.60;;
52866;SDS011;38739;53.324;6.862;2022-09-03T04:05:28;4.85;;;1.60;;
52866;SDS011;38739;53.324;6.862;2022-09-03T04:07:54;2.60;;;1.60;;
52866;SDS011;38739;53.324;6.862;2022-09-03T04:10:19;4.75;;;1.70;;
52866;SDS011;38739;53.324;6.862;2022-09-03T04:12:45;5.28;;;1.70;;
52866;SDS011;38739;53.324;6.862;2022-09-03T04:15:11;6.05;;;1.60;;
52866;SDS011;38739;53.324;6.862;2022-09-03T04:17:36;3.20;;;1.70;;
52866;SDS011;38739;53.324;6.862;2022-09-03T04:20:04;3.45;;;1.80;;
52866;SDS011;38739;53.324;6.862;2022-09-03T04:22:30;5.10;;;1.70;;
52866;SDS011;38739;53.324;6.862;2022-09-03T04:24:55;4.40;;;1.83;;
52866;SDS011;38739;53.324;6.862;2022-09-03T04:27:21;2.47;;;1.58;;
52866;SDS011;38739;53.324;6.862;2022-09-03T04:29:47;4.18;;;1.80;;
52866;SDS011;38739;53.324;6.862;2022-09-03T04:32:12;3.70;;;1.70;;
52866;SDS011;38739;53.324;6.862;2022-09-03T04:34:56;3.70;;;1.70;;
52866;SDS011;38739;53.324;6.862;2022-09-03T04:37:22;4.72;;;1.83;;
52866;SDS011;38739;53.324;6.862;2022-09-03T04:39:48;3.70;;;1.77;;
52866;SDS011;38739;53.324;6.862;2022-09-03T04:42:13;4.10;;;1.80;;
52866;SDS011;38739;53.324;6.862;2022-09-03T04:44:39;3.97;;;1.58;;
52866;SDS011;38739;53.324;6.862;2022-09-03T04:47:05;2.05;;;1.67;;
52866;SDS011;38739;53.324;6.862;2022-09-03T04:49:31;4.50;;;1.50;;
52866;SDS011;38739;53.324;6.862;2022-09-03T04:51:57;4.40;;;1.52;;
52866;SDS011;38739;53.324;6.862;2022-09-03T04:54:32;5.95;;;1.70;;
52866;SDS011;38739;53.324;6.862;2022-09-03T04:57:01;3.40;;;1.63;;
52866;SDS011;38739;53.324;6.862;2022-09-03T04:59:34;4.15;;;1.90;;
52866;SDS011;38739;53.324;6.862;2022-09-03T05:02:01;2.90;;;1.63;;
52866;SDS011;38739;53.324;6.862;2022-09-03T05:04:29;2.42;;;1.80;;
52866;SDS011;38739;53.324;6.862;2022-09-03T05:06:56;4.68;;;1.90;;
52866;SDS011;38739;53.324;6.862;2022-09-03T05:09:22;5.75;;;1.63;;
52866;SDS011;38739;53.324;6.862;2022-09-03T05:11:48;3.47;;;1.92;;
52866;SDS011;38739;53.324;6.862;2022-09-03T05:14:14;5.93;;;1.88;;
52866;SDS011;38739;53.324;6.862;2022-09-03T05:16:39;2.45;;;1.70;;
52866;SDS011;38739;53.324;6.862;2022-09-03T05:19:05;3.15;;;1.65;;
52866;SDS011;38739;53.324;6.862;2022-09-03T05:21:32;2.83;;;1.70;;
52866;SDS011;38739;53.324;6.862;2022-09-03T05:24:00;5.63;;;1.70;;
52866;SDS011;38739;53.324;6.862;2022-09-03T05:26:28;1.92;;;1.70;;
52866;SDS011;38739;53.324;6.862;2022-09-03T05:28:56;4.95;;;1.80;;
52866;SDS011;38739;53.324;6.862;2022-09-03T05:31:24;3.85;;;1.77;;
52866;SDS011;38739;53.324;6.862;2022-09-03T05:33:53;3.45;;;1.75;;
52866;SDS011;38739;53.324;6.862;2022-09-03T05:36:22;2.83;;;1.60;;
52866;SDS011;38739;53.324;6.862;2022-09-03T05:38:49;1.98;;;1.67;;
52866;SDS011;38739;53.324;6.862;2022-09-03T05:41:18;3.35;;;1.55;;
52866;SDS011;38739;53.324;6.862;2022-09-03T05:43:49;2.53;;;1.67;;
52866;SDS011;38739;53.324;6.862;2022-09-03T05:46:19;3.53;;;1.60;;
52866;SDS011;38739;53.324;6.862;2022-09-03T05:48:45;4.55;;;1.88;;
52866;SDS011;38739;53.324;6.862;2022-09-03T05:51:12;2.80;;;1.70;;
52866;SDS011;38739;53.324;6.862;2022-09-03T05:53:43;3.92;;;1.90;;
52866;SDS011;38739;53.324;6.862;2022-09-03T05:56:11;3.30;;;1.70;;
52866;SDS011;38739;53.324;6.862;2022-09-03T05:58:39;2.15;;;1.42;;
52866;SDS011;38739;53.324;6.862;2022-09-03T06:01:22;3.85;;;1.80;;
52866;SDS011;38739;53.324;6.862;2022-09-03T06:03:53;3.85;;;1.70;;
52866;SDS011;38739;53.324;6.862;2022-09-03T06:06:21;2.00;;;1.70;;
52866;SDS011;38739;53.324;6.862;2022-09-03T06:08:54;3.55;;;1.58;;
52866;SDS011;38739;53.324;6.862;2022-09-03T06:11:22;3.78;;;2.00;;
52866;SDS011;38739;53.324;6.862;2022-09-03T06:13:55;3.42;;;1.75;;
52866;SDS011;38739;53.324;6.862;2022-09-03T06:16:22;6.15;;;1.90;;
52866;SDS011;38739;53.324;6.862;2022-09-03T06:18:49;3.75;;;1.75;;
52866;SDS011;38739;53.324;6.862;2022-09-03T06:21:15;6.40;;;1.70;;
52866;SDS011;38739;53.324;6.862;2022-09-03T06:23:40;5.40;;;1.90;;
52866;SDS011;38739;53.324;6.862;2022-09-03T06:26:07;2.97;;;2.00;;
52866;SDS011;38739;53.324;6.862;2022-09-03T06:28:38;5.25;;;1.55;;
52866;SDS011;38739;53.324;6.862;2022-09-03T06:31:07;3.42;;;1.60;;
52866;SDS011;38739;53.324;6.862;2022-09-03T06:33:36;3.90;;;1.70;;
52866;SDS011;38739;53.324;6.862;2022-09-03T06:36:04;1.90;;;1.60;;
52866;SDS011;38739;53.324;6.862;2022-09-03T06:38:40;3.03;;;1.55;;
52866;SDS011;38739;53.324;6.862;2022-09-03T06:41:08;3.22;;;1.65;;
52866;SDS011;38739;53.324;6.862;2022-09-03T06:43:39;5.00;;;1.55;;
52866;SDS011;38739;53.324;6.862;2022-09-03T06:46:13;5.07;;;1.45;;
52866;SDS011;38739;53.324;6.862;2022-09-03T06:48:40;3.90;;;1.70;;
52866;SDS011;38739;53.324;6.862;2022-09-03T06:51:07;9.88;;;2.00;;
52866;SDS011;38739;53.324;6.862;2022-09-03T06:53:38;3.70;;;1.63;;
52866;SDS011;38739;53.324;6.862;2022-09-03T06:56:06;6.00;;;1.83;;
52866;SDS011;38739;53.324;6.862;2022-09-03T06:58:35;5.97;;;1.80;;
52866;SDS011;38739;53.324;6.862;2022-09-03T07:01:12;2.97;;;1.50;;
52866;SDS011;38739;53.324;6.862;2022-09-03T07:03:43;2.42;;;1.42;;
52866;SDS011;38739;53.324;6.862;2022-09-03T07:06:17;4.03;;;1.83;;
52866;SDS011;38739;53.324;6.862;2022-09-03T07:08:44;1.70;;;1.38;;
52866;SDS011;38739;53.324;6.862;2022-09-03T07:11:14;6.10;;;1.58;;
52866;SDS011;38739;53.324;6.862;2022-09-03T07:13:44;2.97;;;1.50;;
52866;SDS011;38739;53.324;6.862;2022-09-03T07:16:13;4.68;;;1.65;;
52866;SDS011;38739;53.324;6.862;2022-09-03T07:18:46;2.75;;;1.50;;
52866;SDS011;38739;53.324;6.862;2022-09-03T07:21:23;3.88;;;1.60;;
52866;SDS011;38739;53.324;6.862;2022-09-03T07:23:50;3.35;;;1.50;;
52866;SDS011;38739;53.324;6.862;2022-09-03T07:26:19;3.05;;;1.38;;
52866;SDS011;38739;53.324;6.862;2022-09-03T07:28:49;3.25;;;1.42;;
52866;SDS011;38739;53.324;6.862;2022-09-03T07:31:16;2.28;;;1.40;;
52866;SDS011;38739;53.324;6.862;2022-09-03T07:33:44;3.95;;;1.40;;
52866;SDS011;38739;53.324;6.862;2022-09-03T07:36:11;3.40;;;1.40;;
52866;SDS011;38739;53.324;6.862;2022-09-03T07:38:39;2.78;;;1.40;;
52866;SDS011;38739;53.324;6.862;2022-09-03T07:41:07;2.60;;;1.58;;
52866;SDS011;38739;53.324;6.862;2022-09-03T07:43:40;5.35;;;1.70;;
52866;SDS011;38739;53.324;6.862;2022-09-03T07:46:08;4.13;;;1.50;;
52866;SDS011;38739;53.324;6.862;2022-09-03T07:48:37;3.83;;;1.58;;
52866;SDS011;38739;53.324;6.862;2022-09-03T07:51:05;3.00;;;1.48;;
52866;SDS011;38739;53.324;6.862;2022-09-03T07:53:32;4.47;;;1.50;;
52866;SDS011;38739;53.324;6.862;2022-09-03T07:56:05;3.97;;;1.40;;
52866;SDS011;38739;53.324;6.862;2022-09-03T07:58:33;5.13;;;1.70;;
52866;SDS011;38739;53.324;6.862;2022-09-03T08:01:03;3.85;;;1.42;;
52866;SDS011;38739;53.324;6.862;2022-09-03T08:03:32;3.83;;;1.55;;
52866;SDS011;38739;53.324;6.862;2022-09-03T08:06:01;3.63;;;1.40;;
52866;SDS011;38739;53.324;6.862;2022-09-03T08:08:29;5.30;;;1.40;;
52866;SDS011;38739;53.324;6.862;2022-09-03T08:11:06;3.80;;;1.50;;
52866;SDS011;38739;53.324;6.862;2022-09-03T08:13:47;3.35;;;1.50;;
52866;SDS011;38739;53.324;6.862;2022-09-03T08:16:18;5.22;;;1.65;;
52866;SDS011;38739;53.324;6.862;2022-09-03T08:18:44;3.85;;;1.30;;
52866;SDS011;38739;53.324;6.862;2022-09-03T08:21:15;2.53;;;1.50;;
52866;SDS011;38739;53.324;6.862;2022-09-03T08:23:47;2.60;;;1.23;;
52866;SDS011;38739;53.324;6.862;2022-09-03T08:26:14;2.90;;;1.60;;
52866;SDS011;38739;53.324;6.862;2022-09-03T08:28:41;1.92;;;1.40;;
52866;SDS011;38739;53.324;6.862;2022-09-03T08:31:08;4.30;;;1.33;;
52866;SDS011;38739;53.324;6.862;2022-09-03T08:33:36;6.00;;;1.70;;
52866;SDS011;38739;53.324;6.862;2022-09-03T08:36:04;3.38;;;1.40;;
52866;SDS011;38739;53.324;6.862;2022-09-03T08:38:36;2.33;;;1.50;;
52866;SDS011;38739;53.324;6.862;2022-09-03T08:41:05;6.20;;;1.40;;
52866;SDS011;38739;53.324;6.862;2022-09-03T08:43:37;4.65;;;1.70;;
52866;SDS011;38739;53.324;6.862;2022-09-03T08:46:23;2.45;;;1.35;;
52866;SDS011;38739;53.324;6.862;2022-09-03T08:48:57;2.35;;;1.30;;
52866;SDS011;38739;53.324;6.862;2022-09-03T08:51:24;3.38;;;1.25;;
52866;SDS011;38739;53.324;6.862;2022-09-03T08:53:55;3.25;;;1.48;;
52866;SDS011;38739;53.324;6.862;2022-09-03T08:58:53;3.55;;;1.30;;
52866;SDS011;38739;53.324;6.862;2022-09-03T09:07:02;2.03;;;1.10;;
52866;SDS011;38739;53.324;6.862;2022-09-03T09:17:44;4.63;;;1.35;;
52866;SDS011;38739;53.324;6.862;2022-09-03T09:23:07;5.93;;;1.33;;
52866;SDS011;38739;53.324;6.862;2022-09-03T09:25:41;2.88;;;1.10;;
52866;SDS011;38739;53.324;6.862;2022-09-03T09:30:48;1.30;;;1.00;;
52866;SDS011;38739;53.324;6.862;2022-09-03T09:33:15;2.80;;;1.20;;
52866;SDS011;38739;53.324;6.862;2022-09-03T09:35:43;2.30;;;1.02;;
52866;SDS011;38739;53.324;6.862;2022-09-03T09:38:10;3.15;;;0.98;;
52866;SDS011;38739;53.324;6.862;2022-09-03T09:40:37;2.42;;;1.00;;
52866;SDS011;38739;53.324;6.862;2022-09-03T09:43:09;5.55;;;1.17;;
52866;SDS011;38739;53.324;6.862;2022-09-03T09:45:47;3.88;;;1.10;;
52866;SDS011;38739;53.324;6.862;2022-09-03T09:48:17;2.90;;;1.05;;
52866;SDS011;38739;53.324;6.862;2022-09-03T09:53:36;4.78;;;1.38;;
52866;SDS011;38739;53.324;6.862;2022-09-03T09:56:03;6.38;;;1.15;;
52866;SDS011;38739;53.324;6.862;2022-09-03T09:58:29;3.35;;;1.00;;
52866;SDS011;38739;53.324;6.862;2022-09-03T10:01:20;3.50;;;1.00;;
52866;SDS011;38739;53.324;6.862;2022-09-03T10:03:52;2.83;;;1.20;;
52866;SDS011;38739;53.324;6.862;2022-09-03T10:06:26;5.43;;;1.40;;
52866;SDS011;38739;53.324;6.862;2022-09-03T10:09:15;3.25;;;1.20;;
52866;SDS011;38739;53.324;6.862;2022-09-03T10:11:44;3.20;;;0.98;;
52866;SDS011;38739;53.324;6.862;2022-09-03T10:16:48;4.45;;;1.20;;
52866;SDS011;38739;53.324;6.862;2022-09-03T10:19:17;3.20;;;1.33;;
52866;SDS011;38739;53.324;6.862;2022-09-03T10:21:49;1.80;;;0.80;;
52866;SDS011;38739;53.324;6.862;2022-09-03T10:24:26;4.25;;;1.42;;
52866;SDS011;38739;53.324;6.862;2022-09-03T10:27:13;3.78;;;1.13;;
52866;SDS011;38739;53.324;6.862;2022-09-03T10:29:42;3.00;;;1.10;;
52866;SDS011;38739;53.324;6.862;2022-09-03T10:32:16;4.75;;;0.93;;
52866;SDS011;38739;53.324;6.862;2022-09-03T10:37:54;2.97;;;1.00;;
52866;SDS011;38739;53.324;6.862;2022-09-03T10:43:44;5.28;;;1.20;;
52866;SDS011;38739;53.324;6.862;2022-09-03T10:46:25;3.30;;;1.00;;
52866;SDS011;38739;53.324;6.862;2022-09-03T10:51:57;2.35;;;1.00;;
52866;SDS011;38739;53.324;6.862;2022-09-03T10:54:38;3.63;;;0.93;;
52866;SDS011;38739;53.324;6.862;2022-09-03T10:57:34;1.95;;;0.85;;
52866;SDS011;38739;53.324;6.862;2022-09-03T11:00:11;2.28;;;0.82;;
52866;SDS011;38739;53.324;6.862;2022-09-03T11:13:11;5.47;;;0.90;;
52866;SDS011;38739;53.324;6.862;2022-09-03T11:15:57;3.83;;;1.45;;
52866;SDS011;38739;53.324;6.862;2022-09-03T11:21:06;2.30;;;1.08;;
52866;SDS011;38739;53.324;6.862;2022-09-03T11:23:36;2.78;;;0.90;;
52866;SDS011;38739;53.324;6.862;2022-09-03T11:26:07;2.90;;;0.80;;
52866;SDS011;38739;53.324;6.862;2022-09-03T11:31:31;3.15;;;1.00;;
52866;SDS011;38739;53.324;6.862;2022-09-03T11:34:06;2.38;;;0.70;;
52866;SDS011;38739;53.324;6.862;2022-09-03T11:36:38;2.90;;;0.80;;
52866;SDS011;38739;53.324;6.862;2022-09-03T11:41:42;1.40;;;0.80;;
52866;SDS011;38739;53.324;6.862;2022-09-03T11:44:17;3.67;;;0.98;;
52866;SDS011;38739;53.324;6.862;2022-09-03T11:46:54;1.95;;;0.70;;
52866;SDS011;38739;53.324;6.862;2022-09-03T11:49:31;5.10;;;0.85;;
52866;SDS011;38739;53.324;6.862;2022-09-03T11:52:01;4.50;;;0.70;;
52866;SDS011;38739;53.324;6.862;2022-09-03T11:54:42;1.83;;;0.70;;
52866;SDS011;38739;53.324;6.862;2022-09-03T11:57:21;4.13;;;0.85;;
52866;SDS011;38739;53.324;6.862;2022-09-03T12:00:09;3.10;;;0.70;;
52866;SDS011;38739;53.324;6.862;2022-09-03T12:02:45;3.08;;;0.70;;
52866;SDS011;38739;53.324;6.862;2022-09-03T12:11:20;4.65;;;0.95;;
52866;SDS011;38739;53.324;6.862;2022-09-03T12:14:04;4.28;;;1.05;;
52866;SDS011;38739;53.324;6.862;2022-09-03T12:19:48;1.73;;;0.70;;
52866;SDS011;38739;53.324;6.862;2022-09-03T12:22:20;4.45;;;0.80;;
52866;SDS011;38739;53.324;6.862;2022-09-03T12:24:48;4.18;;;0.90;;
52866;SDS011;38739;53.324;6.862;2022-09-03T12:27:25;3.45;;;0.70;;
52866;SDS011;38739;53.324;6.862;2022-09-03T12:30:01;2.25;;;0.70;;
52866;SDS011;38739;53.324;6.862;2022-09-03T12:32:33;1.85;;;0.70;;
52866;SDS011;38739;53.324;6.862;2022-09-03T12:35:15;5.50;;;0.80;;
52866;SDS011;38739;53.324;6.862;2022-09-03T12:37:42;7.07;;;0.85;;
52866;SDS011;38739;53.324;6.862;2022-09-03T12:40:20;5.07;;;0.90;;
52866;SDS011;38739;53.324;6.862;2022-09-03T12:42:47;3.50;;;0.85;;
52866;SDS011;38739;53.324;6.862;2022-09-03T12:45:14;9.20;;;1.63;;
52866;SDS011;38739;53.324;6.862;2022-09-03T12:47:49;3.08;;;0.80;;
52866;SDS011;38739;53.324;6.862;2022-09-03T12:50:16;5.30;;;0.90;;
52866;SDS011;38739;53.324;6.862;2022-09-03T12:52:46;4.05;;;0.80;;
52866;SDS011;38739;53.324;6.862;2022-09-03T13:00:32;4.17;;;0.67;;
52866;SDS011;38739;53.324;6.862;2022-09-03T13:03:11;3.33;;;0.88;;
52866;SDS011;38739;53.324;6.862;2022-09-03T13:05:52;2.92;;;0.80;;
52866;SDS011;38739;53.324;6.862;2022-09-03T13:08:25;6.68;;;0.90;;
52866;SDS011;38739;53.324;6.862;2022-09-03T13:10:56;2.40;;;0.60;;
52866;SDS011;38739;53.324;6.862;2022-09-03T13:13:24;3.20;;;0.77;;
52866;SDS011;38739;53.324;6.862;2022-09-03T13:29:48;5.88;;;1.10;;
52866;SDS011;38739;53.324;6.862;2022-09-03T13:35:05;3.72;;;0.88;;
52866;SDS011;38739;53.324;6.862;2022-09-03T13:37:48;5.72;;;0.98;;
52866;SDS011;38739;53.324;6.862;2022-09-03T13:42:57;2.30;;;0.60;;
52866;SDS011;38739;53.324;6.862;2022-09-03T13:45:49;3.28;;;0.68;;
52866;SDS011;38739;53.324;6.862;2022-09-03T13:51:18;4.38;;;0.95;;
52866;SDS011;38739;53.324;6.862;2022-09-03T13:56:28;1.90;;;0.68;;
52866;SDS011;38739;53.324;6.862;2022-09-03T14:07:26;5.15;;;0.85;;
52866;SDS011;38739;53.324;6.862;2022-09-03T14:13:09;1.33;;;0.90;;
52866;SDS011;38739;53.324;6.862;2022-09-03T14:15:46;3.42;;;0.63;;
52866;SDS011;38739;53.324;6.862;2022-09-03T14:21:02;1.80;;;0.82;;
52866;SDS011;38739;53.324;6.862;2022-09-03T14:23:35;2.58;;;0.70;;
52866;SDS011;38739;53.324;6.862;2022-09-03T14:26:05;2.90;;;0.70;;
52866;SDS011;38739;53.324;6.862;2022-09-03T14:28:40;1.33;;;0.68;;
52866;SDS011;38739;53.324;6.862;2022-09-03T14:31:12;3.80;;;0.90;;
52866;SDS011;38739;53.324;6.862;2022-09-03T14:36:39;2.78;;;0.80;;
52866;SDS011;38739;53.324;6.862;2022-09-03T14:42:17;5.13;;;1.10;;
52866;SDS011;38739;53.324;6.862;2022-09-03T14:50:10;1.98;;;0.90;;
52866;SDS011;38739;53.324;6.862;2022-09-03T14:52:56;2.08;;;0.70;;
52866;SDS011;38739;53.324;6.862;2022-09-03T14:58:38;2.83;;;0.77;;
52866;SDS011;38739;53.324;6.862;2022-09-03T15:01:40;2.28;;;0.80;;
52866;SDS011;38739;53.324;6.862;2022-09-03T15:12:46;2.47;;;0.80;;
52866;SDS011;38739;53.324;6.862;2022-09-03T15:15:50;3.03;;;0.80;;
52866;SDS011;38739;53.324;6.862;2022-09-03T15:18:59;3.90;;;0.70;;
52866;SDS011;38739;53.324;6.862;2022-09-03T15:24:49;2.88;;;0.90;;
52866;SDS011;38739;53.324;6.862;2022-09-03T15:30:15;3.00;;;0.70;;
52866;SDS011;38739;53.324;6.862;2022-09-03T15:38:01;3.97;;;0.80;;
52866;SDS011;38739;53.324;6.862;2022-09-03T15:40:35;5.95;;;1.00;;
52866;SDS011;38739;53.324;6.862;2022-09-03T16:01:26;3.20;;;0.80;;
52866;SDS011;38739;53.324;6.862;2022-09-03T16:04:11;3.65;;;0.82;;
52866;SDS011;38739;53.324;6.862;2022-09-03T16:09:52;2.25;;;0.88;;
52866;SDS011;38739;53.324;6.862;2022-09-03T16:12:49;8.90;;;1.00;;
52866;SDS011;38739;53.324;6.862;2022-09-03T16:15:29;4.60;;;1.00;;
52866;SDS011;38739;53.324;6.862;2022-09-03T16:20:41;4.18;;;0.98;;
52866;SDS011;38739;53.324;6.862;2022-09-03T16:23:14;2.65;;;0.88;;
52866;SDS011;38739;53.324;6.862;2022-09-03T16:26:36;3.47;;;1.00;;
52866;SDS011;38739;53.324;6.862;2022-09-03T16:28:45;4.28;;;1.00;;
52866;SDS011;38739;53.324;6.862;2022-09-03T16:31:39;4.18;;;1.15;;
52866;SDS011;38739;53.324;6.862;2022-09-03T16:34:34;3.75;;;0.80;;
52866;SDS011;38739;53.324;6.862;2022-09-03T16:39:51;3.17;;;1.17;;
52866;SDS011;38739;53.324;6.862;2022-09-03T16:42:27;4.55;;;1.08;;
52866;SDS011;38739;53.324;6.862;2022-09-03T16:45:12;3.78;;;0.80;;
52866;SDS011;38739;53.324;6.862;2022-09-03T16:59:09;1.73;;;0.90;;
52866;SDS011;38739;53.324;6.862;2022-09-03T17:02:03;4.57;;;1.17;;
52866;SDS011;38739;53.324;6.862;2022-09-03T17:10:02;2.10;;;1.00;;
52866;SDS011;38739;53.324;6.862;2022-09-03T17:15:51;5.63;;;0.98;;
52866;SDS011;38739;53.324;6.862;2022-09-03T17:18:41;3.28;;;1.15;;
52866;SDS011;38739;53.324;6.862;2022-09-03T17:26:30;4.88;;;0.85;;
52866;SDS011;38739;53.324;6.862;2022-09-03T17:31:54;4.03;;;0.90;;
52866;SDS011;38739;53.324;6.862;2022-09-03T17:51:08;4.80;;;1.30;;
52866;SDS011;38739;53.324;6.862;2022-09-03T17:54:09;3.63;;;1.20;;
52866;SDS011;38739;53.324;6.862;2022-09-03T17:56:45;2.22;;;1.00;;
52866;SDS011;38739;53.324;6.862;2022-09-03T17:59:21;3.85;;;1.30;;
52866;SDS011;38739;53.324;6.862;2022-09-03T18:02:49;4.40;;;1.27;;
52866;SDS011;38739;53.324;6.862;2022-09-03T18:05:02;4.00;;;1.38;;
52866;SDS011;38739;53.324;6.862;2022-09-03T18:07:40;5.13;;;1.35;;
52866;SDS011;38739;53.324;6.862;2022-09-03T18:12:45;6.28;;;1.42;;
52866;SDS011;38739;53.324;6.862;2022-09-03T18:18:29;3.90;;;1.40;;
52866;SDS011;38739;53.324;6.862;2022-09-03T18:20:56;6.32;;;1.58;;
52866;SDS011;38739;53.324;6.862;2022-09-03T18:26:57;3.22;;;1.35;;
52866;SDS011;38739;53.324;6.862;2022-09-03T18:29:46;8.05;;;1.23;;
52866;SDS011;38739;53.324;6.862;2022-09-03T18:32:36;6.07;;;1.33;;
52866;SDS011;38739;53.324;6.862;2022-09-03T18:35:21;2.17;;;1.40;;
52866;SDS011;38739;53.324;6.862;2022-09-03T18:38:11;2.63;;;1.27;;
52866;SDS011;38739;53.324;6.862;2022-09-03T18:41:11;10.98;;;1.85;;
52866;SDS011;38739;53.324;6.862;2022-09-03T18:44:21;5.28;;;1.20;;
52866;SDS011;38739;53.324;6.862;2022-09-03T18:54:19;6.85;;;1.20;;
52866;SDS011;38739;53.324;6.862;2022-09-03T18:57:27;3.83;;;1.20;;
52866;SDS011;38739;53.324;6.862;2022-09-03T19:00:22;2.58;;;1.17;;
52866;SDS011;38739;53.324;6.862;2022-09-03T19:10:01;2.67;;;0.95;;
52866;SDS011;38739;53.324;6.862;2022-09-03T19:15:26;2.53;;;1.33;;
52866;SDS011;38739;53.324;6.862;2022-09-03T19:24:46;3.47;;;1.00;;
52866;SDS011;38739;53.324;6.862;2022-09-03T19:30:30;4.28;;;1.10;;
52866;SDS011;38739;53.324;6.862;2022-09-03T19:45:38;2.90;;;1.17;;
52866;SDS011;38739;53.324;6.862;2022-09-03T19:51:57;4.60;;;1.30;;
52866;SDS011;38739;53.324;6.862;2022-09-03T19:54:54;2.45;;;1.25;;
52866;SDS011;38739;53.324;6.862;2022-09-03T19:57:40;4.50;;;1.42;;
52866;SDS011;38739;53.324;6.862;2022-09-03T20:00:27;2.22;;;1.15;;
52866;SDS011;38739;53.324;6.862;2022-09-03T20:03:14;3.17;;;1.33;;
52866;SDS011;38739;53.324;6.862;2022-09-03T20:05:59;1.40;;;1.20;;
52866;SDS011;38739;53.324;6.862;2022-09-03T20:08:46;6.78;;;1.42;;
52866;SDS011;38739;53.324;6.862;2022-09-03T20:11:32;5.05;;;1.20;;
52866;SDS011;38739;53.324;6.862;2022-09-03T20:13:58;4.00;;;1.38;;
52866;SDS011;38739;53.324;6.862;2022-09-03T20:21:58;5.97;;;1.30;;
52866;SDS011;38739;53.324;6.862;2022-09-03T20:30:17;4.50;;;1.40;;
52866;SDS011;38739;53.324;6.862;2022-09-03T20:44:21;4.78;;;1.40;;
52866;SDS011;38739;53.324;6.862;2022-09-03T20:47:23;2.53;;;1.30;;
52866;SDS011;38739;53.324;6.862;2022-09-03T20:50:22;4.68;;;1.63;;
52866;SDS011;38739;53.324;6.862;2022-09-03T20:55:41;5.15;;;1.75;;
52866;SDS011;38739;53.324;6.862;2022-09-03T21:14:33;4.57;;;1.30;;
52866;SDS011;38739;53.324;6.862;2022-09-03T21:20:16;5.65;;;1.48;;
52866;SDS011;38739;53.324;6.862;2022-09-03T21:26:04;3.75;;;1.83;;
52866;SDS011;38739;53.324;6.862;2022-09-03T21:28:39;4.53;;;1.48;;
52866;SDS011;38739;53.324;6.862;2022-09-03T21:31:14;3.97;;;1.55;;
52866;SDS011;38739;53.324;6.862;2022-09-03T21:33:46;5.95;;;1.70;;
52866;SDS011;38739;53.324;6.862;2022-09-03T21:36:19;3.88;;;1.33;;